sensor_id;sensor_type;location;lat;lon;timestamp;P1;durP1;ratioP1;P2;durP2;ratioP2
70942;SDS011;59154;51.970;5.650;2023-05-10T00:00:03;2.6;;;2.0;;
70942;SDS011;59154;51.970;5.650;2023-05-10T00:05:02;2.0;;;1.6;;
70942;SDS011;59154;51.970;5.650;2023-05-10T00:10:02;3.3;;;2.0;;
70942;SDS011;59154;51.970;5.650;2023-05-10T00:15:02;2.7;;;1.8;;
70942;SDS011;59154;51.970;5.650;2023-05-10T00:20:03;3.1;;;2.2;;
70942;SDS011;59154;51.970;5.650;2023-05-10T00:25:03;2.1;;;1.8;;
70942;SDS011;59154;51.970;5.650;2023-05-10T00:30:02;3.0;;;1.9;;
70942;SDS011;59154;51.970;5.650;2023-05-10T00:35:03;3.4;;;2.0;;
70942;SDS011;59154;51.970;5.650;2023-05-10T00:40:02;2.7;;;2.0;;
70942;SDS011;59154;51.970;5.650;2023-05-10T00:45:02;3.4;;;2.3;;
70942;SDS011;59154;51.970;5.650;2023-05-10T00:50:03;3.0;;;1.8;;
70942;SDS011;59154;51.970;5.650;2023-05-10T00:55:02;2.7;;;1.9;;
70942;SDS011;59154;51.970;5.650;2023-05-10T01:00:04;3.0;;;2.1;;
70942;SDS011;59154;51.970;5.650;2023-05-10T01:05:02;3.1;;;2.2;;
70942;SDS011;59154;51.970;5.650;2023-05-10T01:10:03;2.7;;;2.1;;
70942;SDS011;59154;51.970;5.650;2023-05-10T01:15:03;2.9;;;2.3;;
70942;SDS011;59154;51.970;5.650;2023-05-10T01:20:03;3.2;;;2.2;;
70942;SDS011;59154;51.970;5.650;2023-05-10T01:25:07;3.2;;;2.6;;
70942;SDS011;59154;51.970;5.650;2023-05-10T01:30:16;3.4;;;2.3;;
70942;SDS011;59154;51.970;5.650;2023-05-10T01:35:03;2.8;;;2.2;;
70942;SDS011;59154;51.970;5.650;2023-05-10T01:40:06;4.4;;;2.9;;
70942;SDS011;59154;51.970;5.650;2023-05-10T01:45:05;3.1;;;2.5;;
70942;SDS011;59154;51.970;5.650;2023-05-10T01:50:03;4.6;;;2.6;;
70942;SDS011;59154;51.970;5.650;2023-05-10T01:55:04;3.8;;;2.7;;
70942;SDS011;59154;51.970;5.650;2023-05-10T02:00:04;3.7;;;2.4;;
70942;SDS011;59154;51.970;5.650;2023-05-10T02:05:02;3.3;;;2.9;;
70942;SDS011;59154;51.970;5.650;2023-05-10T02:10:03;3.6;;;2.6;;
70942;SDS011;59154;51.970;5.650;2023-05-10T02:15:04;4.1;;;2.6;;
70942;SDS011;59154;51.970;5.650;2023-05-10T02:20:03;4.2;;;3.2;;
70942;SDS011;59154;51.970;5.650;2023-05-10T02:25:02;3.5;;;2.6;;
70942;SDS011;59154;51.970;5.650;2023-05-10T02:30:02;3.5;;;2.7;;
70942;SDS011;59154;51.970;5.650;2023-05-10T02:35:03;4.3;;;2.8;;
70942;SDS011;59154;51.970;5.650;2023-05-10T02:40:04;3.6;;;2.8;;
70942;SDS011;59154;51.970;5.650;2023-05-10T02:45:04;3.9;;;3.0;;
70942;SDS011;59154;51.970;5.650;2023-05-10T02:50:03;3.9;;;2.7;;
70942;SDS011;59154;51.970;5.650;2023-05-10T02:55:02;4.2;;;2.9;;
70942;SDS011;59154;51.970;5.650;2023-05-10T03:00:04;3.5;;;2.9;;
70942;SDS011;59154;51.970;5.650;2023-05-10T03:05:02;5.7;;;4.0;;
70942;SDS011;59154;51.970;5.650;2023-05-10T03:10:02;4.0;;;2.7;;
70942;SDS011;59154;51.970;5.650;2023-05-10T03:15:03;4.3;;;3.0;;
70942;SDS011;59154;51.970;5.650;2023-05-10T03:20:03;3.4;;;2.7;;
70942;SDS011;59154;51.970;5.650;2023-05-10T03:25:04;4.6;;;3.5;;
70942;SDS011;59154;51.970;5.650;2023-05-10T03:30:03;5.0;;;4.2;;
70942;SDS011;59154;51.970;5.650;2023-05-10T03:35:05;5.0;;;3.9;;
70942;SDS011;59154;51.970;5.650;2023-05-10T03:40:03;5.3;;;3.4;;
70942;SDS011;59154;51.970;5.650;2023-05-10T03:45:02;4.4;;;3.0;;
70942;SDS011;59154;51.970;5.650;2023-05-10T03:50:02;3.7;;;3.0;;
70942;SDS011;59154;51.970;5.650;2023-05-10T03:55:02;4.1;;;3.1;;
70942;SDS011;59154;51.970;5.650;2023-05-10T04:00:03;5.1;;;3.4;;
70942;SDS011;59154;51.970;5.650;2023-05-10T04:05:02;5.0;;;3.8;;
70942;SDS011;59154;51.970;5.650;2023-05-10T04:10:03;4.5;;;3.5;;
70942;SDS011;59154;51.970;5.650;2023-05-10T04:15:02;5.4;;;3.8;;
70942;SDS011;59154;51.970;5.650;2023-05-10T04:20:02;5.1;;;3.4;;
70942;SDS011;59154;51.970;5.650;2023-05-10T04:25:03;5.3;;;4.1;;
70942;SDS011;59154;51.970;5.650;2023-05-10T04:30:03;4.5;;;3.6;;
70942;SDS011;59154;51.970;5.650;2023-05-10T04:35:03;5.6;;;3.8;;
70942;SDS011;59154;51.970;5.650;2023-05-10T04:40:03;4.9;;;3.6;;
70942;SDS011;59154;51.970;5.650;2023-05-10T04:45:02;4.2;;;3.1;;
70942;SDS011;59154;51.970;5.650;2023-05-10T04:50:02;4.3;;;3.5;;
70942;SDS011;59154;51.970;5.650;2023-05-10T04:55:02;3.8;;;3.2;;
70942;SDS011;59154;51.970;5.650;2023-05-10T05:00:03;4.6;;;3.6;;
70942;SDS011;59154;51.970;5.650;2023-05-10T05:05:02;4.5;;;3.6;;
70942;SDS011;59154;51.970;5.650;2023-05-10T05:10:04;6.8;;;4.2;;
70942;SDS011;59154;51.970;5.650;2023-05-10T05:15:03;4.8;;;3.6;;
70942;SDS011;59154;51.970;5.650;2023-05-10T05:20:03;4.6;;;3.5;;
70942;SDS011;59154;51.970;5.650;2023-05-10T05:25:03;4.0;;;3.1;;
70942;SDS011;59154;51.970;5.650;2023-05-10T05:30:03;5.0;;;3.8;;
70942;SDS011;59154;51.970;5.650;2023-05-10T05:35:02;5.2;;;4.0;;
70942;SDS011;59154;51.970;5.650;2023-05-10T05:40:03;4.9;;;3.8;;
70942;SDS011;59154;51.970;5.650;2023-05-10T05:45:02;5.9;;;4.0;;
70942;SDS011;59154;51.970;5.650;2023-05-10T05:50:02;7.3;;;4.4;;
70942;SDS011;59154;51.970;5.650;2023-05-10T05:55:02;6.5;;;4.2;;
70942;SDS011;59154;51.970;5.650;2023-05-10T06:00:03;7.8;;;4.3;;
70942;SDS011;59154;51.970;5.650;2023-05-10T06:05:02;6.1;;;4.5;;
70942;SDS011;59154;51.970;5.650;2023-05-10T06:10:02;6.1;;;4.4;;
70942;SDS011;59154;51.970;5.650;2023-05-10T06:15:03;8.0;;;4.3;;
70942;SDS011;59154;51.970;5.650;2023-05-10T06:20:03;6.4;;;4.1;;
70942;SDS011;59154;51.970;5.650;2023-05-10T06:25:02;7.4;;;4.9;;
70942;SDS011;59154;51.970;5.650;2023-05-10T06:30:02;5.6;;;4.2;;
70942;SDS011;59154;51.970;5.650;2023-05-10T06:35:02;6.5;;;4.2;;
70942;SDS011;59154;51.970;5.650;2023-05-10T06:40:03;6.0;;;3.8;;
70942;SDS011;59154;51.970;5.650;2023-05-10T06:45:02;6.8;;;4.7;;
70942;SDS011;59154;51.970;5.650;2023-05-10T06:50:03;7.5;;;4.9;;
70942;SDS011;59154;51.970;5.650;2023-05-10T06:55:02;6.9;;;4.8;;
70942;SDS011;59154;51.970;5.650;2023-05-10T07:00:03;6.5;;;5.0;;
70942;SDS011;59154;51.970;5.650;2023-05-10T07:05:03;6.7;;;5.1;;
70942;SDS011;59154;51.970;5.650;2023-05-10T07:10:02;8.0;;;5.2;;
70942;SDS011;59154;51.970;5.650;2023-05-10T07:15:02;6.9;;;5.0;;
70942;SDS011;59154;51.970;5.650;2023-05-10T07:20:03;5.9;;;4.6;;
70942;SDS011;59154;51.970;5.650;2023-05-10T07:25:02;6.9;;;5.2;;
70942;SDS011;59154;51.970;5.650;2023-05-10T07:30:02;6.5;;;4.9;;
70942;SDS011;59154;51.970;5.650;2023-05-10T07:35:02;7.0;;;5.1;;
70942;SDS011;59154;51.970;5.650;2023-05-10T07:40:03;8.2;;;5.5;;
70942;SDS011;59154;51.970;5.650;2023-05-10T07:45:02;7.1;;;4.9;;
70942;SDS011;59154;51.970;5.650;2023-05-10T07:50:02;5.9;;;4.8;;
70942;SDS011;59154;51.970;5.650;2023-05-10T07:55:02;6.0;;;4.9;;
70942;SDS011;59154;51.970;5.650;2023-05-10T08:00:03;6.1;;;4.9;;
70942;SDS011;59154;51.970;5.650;2023-05-10T08:05:02;6.2;;;5.0;;
70942;SDS011;59154;51.970;5.650;2023-05-10T08:10:04;7.0;;;5.1;;
70942;SDS011;59154;51.970;5.650;2023-05-10T08:15:02;5.3;;;4.4;;
70942;SDS011;59154;51.970;5.650;2023-05-10T08:20:04;5.6;;;4.0;;
70942;SDS011;59154;51.970;5.650;2023-05-10T08:25:02;5.5;;;3.9;;
70942;SDS011;59154;51.970;5.650;2023-05-10T08:30:02;4.7;;;3.8;;
70942;SDS011;59154;51.970;5.650;2023-05-10T08:35:02;5.5;;;4.1;;
70942;SDS011;59154;51.970;5.650;2023-05-10T08:40:03;5.2;;;3.6;;
70942;SDS011;59154;51.970;5.650;2023-05-10T08:45:03;4.3;;;3.1;;
70942;SDS011;59154;51.970;5.650;2023-05-10T08:50:03;4.3;;;3.0;;
70942;SDS011;59154;51.970;5.650;2023-05-10T08:55:02;4.4;;;3.1;;
70942;SDS011;59154;51.970;5.650;2023-05-10T09:00:04;3.2;;;2.6;;
70942;SDS011;59154;51.970;5.650;2023-05-10T09:05:03;4.3;;;3.4;;
70942;SDS011;59154;51.970;5.650;2023-05-10T09:10:02;4.3;;;3.1;;
70942;SDS011;59154;51.970;5.650;2023-05-10T09:15:02;4.8;;;3.1;;
70942;SDS011;59154;51.970;5.650;2023-05-10T09:20:03;4.5;;;3.1;;
70942;SDS011;59154;51.970;5.650;2023-05-10T09:25:04;3.6;;;2.7;;
70942;SDS011;59154;51.970;5.650;2023-05-10T09:30:03;4.3;;;2.9;;
70942;SDS011;59154;51.970;5.650;2023-05-10T09:35:06;3.3;;;2.5;;
70942;SDS011;59154;51.970;5.650;2023-05-10T09:40:04;3.4;;;2.7;;
70942;SDS011;59154;51.970;5.650;2023-05-10T09:45:02;4.2;;;3.1;;
70942;SDS011;59154;51.970;5.650;2023-05-10T09:50:02;4.1;;;2.8;;
70942;SDS011;59154;51.970;5.650;2023-05-10T09:55:02;3.7;;;2.5;;
70942;SDS011;59154;51.970;5.650;2023-05-10T10:00:03;2.8;;;2.3;;
70942;SDS011;59154;51.970;5.650;2023-05-10T10:05:02;3.5;;;2.4;;
70942;SDS011;59154;51.970;5.650;2023-05-10T10:10:03;3.8;;;2.7;;
70942;SDS011;59154;51.970;5.650;2023-05-10T10:15:03;3.3;;;2.4;;
70942;SDS011;59154;51.970;5.650;2023-05-10T10:20:03;5.1;;;2.6;;
70942;SDS011;59154;51.970;5.650;2023-05-10T10:25:03;4.1;;;2.5;;
70942;SDS011;59154;51.970;5.650;2023-05-10T10:30:04;4.2;;;2.5;;
70942;SDS011;59154;51.970;5.650;2023-05-10T10:35:02;4.2;;;2.2;;
70942;SDS011;59154;51.970;5.650;2023-05-10T10:40:11;2.8;;;2.1;;
70942;SDS011;59154;51.970;5.650;2023-05-10T10:45:11;3.3;;;2.6;;
70942;SDS011;59154;51.970;5.650;2023-05-10T10:50:03;3.2;;;2.4;;
70942;SDS011;59154;51.970;5.650;2023-05-10T10:55:03;3.7;;;2.8;;
70942;SDS011;59154;51.970;5.650;2023-05-10T11:00:19;3.6;;;2.3;;
70942;SDS011;59154;51.970;5.650;2023-05-10T11:05:22;4.7;;;3.0;;
70942;SDS011;59154;51.970;5.650;2023-05-10T11:10:04;4.7;;;3.0;;
70942;SDS011;59154;51.970;5.650;2023-05-10T11:15:02;5.8;;;3.0;;
70942;SDS011;59154;51.970;5.650;2023-05-10T11:20:06;3.0;;;2.5;;
70942;SDS011;59154;51.970;5.650;2023-05-10T11:25:02;3.4;;;2.5;;
70942;SDS011;59154;51.970;5.650;2023-05-10T11:30:04;3.6;;;2.4;;
70942;SDS011;59154;51.970;5.650;2023-05-10T11:35:06;4.7;;;2.5;;
70942;SDS011;59154;51.970;5.650;2023-05-10T11:40:03;4.1;;;2.9;;
70942;SDS011;59154;51.970;5.650;2023-05-10T11:45:02;3.3;;;2.6;;
70942;SDS011;59154;51.970;5.650;2023-05-10T11:50:02;3.5;;;2.5;;
70942;SDS011;59154;51.970;5.650;2023-05-10T11:55:02;4.4;;;2.6;;
70942;SDS011;59154;51.970;5.650;2023-05-10T12:00:03;3.6;;;2.7;;
70942;SDS011;59154;51.970;5.650;2023-05-10T12:05:02;4.7;;;2.3;;
70942;SDS011;59154;51.970;5.650;2023-05-10T12:10:04;3.1;;;2.1;;
70942;SDS011;59154;51.970;5.650;2023-05-10T12:15:02;4.0;;;2.3;;
70942;SDS011;59154;51.970;5.650;2023-05-10T12:20:19;3.3;;;2.4;;
70942;SDS011;59154;51.970;5.650;2023-05-10T12:25:02;3.0;;;2.2;;
70942;SDS011;59154;51.970;5.650;2023-05-10T12:30:03;3.2;;;2.2;;
70942;SDS011;59154;51.970;5.650;2023-05-10T12:35:03;3.6;;;2.2;;
70942;SDS011;59154;51.970;5.650;2023-05-10T12:40:03;4.2;;;2.4;;
70942;SDS011;59154;51.970;5.650;2023-05-10T12:45:02;3.4;;;2.4;;
70942;SDS011;59154;51.970;5.650;2023-05-10T12:50:02;2.5;;;1.9;;
70942;SDS011;59154;51.970;5.650;2023-05-10T12:55:03;2.8;;;1.9;;
70942;SDS011;59154;51.970;5.650;2023-05-10T13:00:03;3.9;;;2.2;;
70942;SDS011;59154;51.970;5.650;2023-05-10T13:05:02;5.7;;;2.8;;
70942;SDS011;59154;51.970;5.650;2023-05-10T13:10:02;3.0;;;2.0;;
70942;SDS011;59154;51.970;5.650;2023-05-10T13:15:03;2.6;;;1.8;;
70942;SDS011;59154;51.970;5.650;2023-05-10T13:20:03;3.0;;;2.1;;
70942;SDS011;59154;51.970;5.650;2023-05-10T13:25:02;3.5;;;2.0;;
70942;SDS011;59154;51.970;5.650;2023-05-10T13:30:03;3.4;;;2.3;;
70942;SDS011;59154;51.970;5.650;2023-05-10T13:35:02;3.6;;;2.0;;
70942;SDS011;59154;51.970;5.650;2023-05-10T13:40:03;3.0;;;2.0;;
70942;SDS011;59154;51.970;5.650;2023-05-10T13:45:03;2.3;;;1.8;;
70942;SDS011;59154;51.970;5.650;2023-05-10T13:50:02;2.9;;;1.8;;
70942;SDS011;59154;51.970;5.650;2023-05-10T13:55:02;2.5;;;2.0;;
70942;SDS011;59154;51.970;5.650;2023-05-10T14:00:03;2.5;;;1.9;;
70942;SDS011;59154;51.970;5.650;2023-05-10T14:05:02;2.2;;;1.8;;
70942;SDS011;59154;51.970;5.650;2023-05-10T14:10:03;3.1;;;2.0;;
70942;SDS011;59154;51.970;5.650;2023-05-10T14:15:02;2.5;;;1.8;;
70942;SDS011;59154;51.970;5.650;2023-05-10T14:20:03;2.3;;;1.8;;
70942;SDS011;59154;51.970;5.650;2023-05-10T14:25:03;2.5;;;1.7;;
70942;SDS011;59154;51.970;5.650;2023-05-10T14:30:02;2.9;;;1.7;;
70942;SDS011;59154;51.970;5.650;2023-05-10T14:35:02;2.1;;;1.5;;
70942;SDS011;59154;51.970;5.650;2023-05-10T14:40:03;2.3;;;1.6;;
70942;SDS011;59154;51.970;5.650;2023-05-10T14:45:02;1.7;;;1.5;;
70942;SDS011;59154;51.970;5.650;2023-05-10T14:50:02;2.1;;;1.6;;
70942;SDS011;59154;51.970;5.650;2023-05-10T14:55:02;1.6;;;1.4;;
70942;SDS011;59154;51.970;5.650;2023-05-10T15:00:03;2.0;;;1.7;;
70942;SDS011;59154;51.970;5.650;2023-05-10T15:05:02;1.9;;;1.6;;
70942;SDS011;59154;51.970;5.650;2023-05-10T15:10:02;2.0;;;1.4;;
70942;SDS011;59154;51.970;5.650;2023-05-10T15:15:03;1.6;;;1.4;;
70942;SDS011;59154;51.970;5.650;2023-05-10T15:20:03;2.0;;;1.6;;
70942;SDS011;59154;51.970;5.650;2023-05-10T15:25:02;2.6;;;1.9;;
70942;SDS011;59154;51.970;5.650;2023-05-10T15:30:02;4.5;;;2.8;;
70942;SDS011;59154;51.970;5.650;2023-05-10T15:35:02;5.1;;;3.5;;
70942;SDS011;59154;51.970;5.650;2023-05-10T15:40:03;3.5;;;2.5;;
70942;SDS011;59154;51.970;5.650;2023-05-10T15:45:02;3.3;;;2.4;;
70942;SDS011;59154;51.970;5.650;2023-05-10T15:50:02;3.1;;;2.1;;
70942;SDS011;59154;51.970;5.650;2023-05-10T15:55:03;3.2;;;2.0;;
70942;SDS011;59154;51.970;5.650;2023-05-10T16:00:04;2.6;;;1.8;;
70942;SDS011;59154;51.970;5.650;2023-05-10T16:05:02;2.4;;;1.7;;
70942;SDS011;59154;51.970;5.650;2023-05-10T16:10:02;4.5;;;2.1;;
70942;SDS011;59154;51.970;5.650;2023-05-10T16:15:03;3.3;;;1.7;;
70942;SDS011;59154;51.970;5.650;2023-05-10T16:20:03;3.0;;;1.5;;
70942;SDS011;59154;51.970;5.650;2023-05-10T16:25:03;3.9;;;2.1;;
70942;SDS011;59154;51.970;5.650;2023-05-10T16:30:03;2.6;;;1.8;;
70942;SDS011;59154;51.970;5.650;2023-05-10T16:35:02;2.9;;;1.9;;
70942;SDS011;59154;51.970;5.650;2023-05-10T16:40:03;3.7;;;1.7;;
70942;SDS011;59154;51.970;5.650;2023-05-10T16:45:02;2.2;;;1.5;;
70942;SDS011;59154;51.970;5.650;2023-05-10T16:50:02;2.6;;;1.7;;
70942;SDS011;59154;51.970;5.650;2023-05-10T16:55:02;1.7;;;1.5;;
70942;SDS011;59154;51.970;5.650;2023-05-10T17:00:03;2.4;;;1.7;;
70942;SDS011;59154;51.970;5.650;2023-05-10T17:05:03;4.8;;;1.7;;
70942;SDS011;59154;51.970;5.650;2023-05-10T17:10:03;3.0;;;1.7;;
70942;SDS011;59154;51.970;5.650;2023-05-10T17:15:03;2.5;;;1.8;;
70942;SDS011;59154;51.970;5.650;2023-05-10T17:20:04;1.7;;;1.2;;
70942;SDS011;59154;51.970;5.650;2023-05-10T17:25:02;2.0;;;1.5;;
70942;SDS011;59154;51.970;5.650;2023-05-10T17:30:03;3.4;;;1.7;;
70942;SDS011;59154;51.970;5.650;2023-05-10T17:35:04;3.2;;;1.6;;
70942;SDS011;59154;51.970;5.650;2023-05-10T17:40:03;2.9;;;1.9;;
70942;SDS011;59154;51.970;5.650;2023-05-10T17:45:02;6.7;;;1.8;;
70942;SDS011;59154;51.970;5.650;2023-05-10T17:50:03;4.6;;;1.9;;
70942;SDS011;59154;51.970;5.650;2023-05-10T17:55:02;5.1;;;1.8;;
70942;SDS011;59154;51.970;5.650;2023-05-10T18:00:04;3.2;;;2.0;;
70942;SDS011;59154;51.970;5.650;2023-05-10T18:05:02;8.8;;;2.2;;
70942;SDS011;59154;51.970;5.650;2023-05-10T18:10:03;5.4;;;3.2;;
70942;SDS011;59154;51.970;5.650;2023-05-10T18:15:03;4.3;;;2.2;;
70942;SDS011;59154;51.970;5.650;2023-05-10T18:20:04;3.1;;;2.0;;
70942;SDS011;59154;51.970;5.650;2023-05-10T18:25:02;2.4;;;1.9;;
70942;SDS011;59154;51.970;5.650;2023-05-10T18:30:03;3.7;;;2.3;;
70942;SDS011;59154;51.970;5.650;2023-05-10T18:35:02;3.5;;;2.3;;
70942;SDS011;59154;51.970;5.650;2023-05-10T18:40:03;3.0;;;1.9;;
70942;SDS011;59154;51.970;5.650;2023-05-10T18:45:02;4.1;;;2.2;;
70942;SDS011;59154;51.970;5.650;2023-05-10T18:50:03;8.8;;;2.5;;
70942;SDS011;59154;51.970;5.650;2023-05-10T18:55:02;3.3;;;2.2;;
70942;SDS011;59154;51.970;5.650;2023-05-10T19:00:03;8.0;;;2.6;;
70942;SDS011;59154;51.970;5.650;2023-05-10T19:05:02;4.5;;;2.6;;
70942;SDS011;59154;51.970;5.650;2023-05-10T19:10:03;7.0;;;2.1;;
70942;SDS011;59154;51.970;5.650;2023-05-10T19:15:02;3.1;;;2.3;;
70942;SDS011;59154;51.970;5.650;2023-05-10T19:20:03;3.3;;;1.9;;
70942;SDS011;59154;51.970;5.650;2023-05-10T19:25:02;4.3;;;2.4;;
70942;SDS011;59154;51.970;5.650;2023-05-10T19:30:03;2.9;;;2.3;;
70942;SDS011;59154;51.970;5.650;2023-05-10T19:35:02;3.4;;;2.8;;
70942;SDS011;59154;51.970;5.650;2023-05-10T19:40:03;4.3;;;2.6;;
70942;SDS011;59154;51.970;5.650;2023-05-10T19:45:02;3.7;;;2.4;;
70942;SDS011;59154;51.970;5.650;2023-05-10T19:50:03;5.9;;;2.8;;
70942;SDS011;59154;51.970;5.650;2023-05-10T19:55:02;4.5;;;2.9;;
70942;SDS011;59154;51.970;5.650;2023-05-10T20:00:03;3.0;;;2.0;;
70942;SDS011;59154;51.970;5.650;2023-05-10T20:05:02;3.6;;;2.4;;
70942;SDS011;59154;51.970;5.650;2023-05-10T20:10:03;7.3;;;2.7;;
70942;SDS011;59154;51.970;5.650;2023-05-10T20:15:02;4.1;;;2.0;;
70942;SDS011;59154;51.970;5.650;2023-05-10T20:20:03;4.7;;;2.3;;
70942;SDS011;59154;51.970;5.650;2023-05-10T20:25:02;5.7;;;2.8;;
70942;SDS011;59154;51.970;5.650;2023-05-10T20:30:02;4.4;;;2.8;;
70942;SDS011;59154;51.970;5.650;2023-05-10T20:35:02;5.4;;;2.6;;
70942;SDS011;59154;51.970;5.650;2023-05-10T20:40:04;5.9;;;2.6;;
70942;SDS011;59154;51.970;5.650;2023-05-10T20:45:02;6.0;;;2.8;;
70942;SDS011;59154;51.970;5.650;2023-05-10T20:50:02;4.3;;;3.0;;
70942;SDS011;59154;51.970;5.650;2023-05-10T20:55:03;4.8;;;2.5;;
70942;SDS011;59154;51.970;5.650;2023-05-10T21:00:03;5.0;;;2.7;;
70942;SDS011;59154;51.970;5.650;2023-05-10T21:05:02;4.7;;;2.3;;
70942;SDS011;59154;51.970;5.650;2023-05-10T21:10:02;4.1;;;2.5;;
70942;SDS011;59154;51.970;5.650;2023-05-10T21:15:02;6.0;;;2.5;;
70942;SDS011;59154;51.970;5.650;2023-05-10T21:20:03;5.3;;;2.8;;
70942;SDS011;59154;51.970;5.650;2023-05-10T21:25:03;6.3;;;2.8;;
70942;SDS011;59154;51.970;5.650;2023-05-10T21:30:02;3.8;;;2.8;;
70942;SDS011;59154;51.970;5.650;2023-05-10T21:35:02;3.5;;;2.4;;
70942;SDS011;59154;51.970;5.650;2023-05-10T21:40:04;3.5;;;2.4;;
70942;SDS011;59154;51.970;5.650;2023-05-10T21:45:03;3.1;;;2.0;;
70942;SDS011;59154;51.970;5.650;2023-05-10T21:50:02;3.5;;;2.3;;
70942;SDS011;59154;51.970;5.650;2023-05-10T21:55:02;3.4;;;2.1;;
70942;SDS011;59154;51.970;5.650;2023-05-10T22:00:03;5.2;;;2.2;;
70942;SDS011;59154;51.970;5.650;2023-05-10T22:05:02;4.1;;;2.3;;
70942;SDS011;59154;51.970;5.650;2023-05-10T22:10:03;4.0;;;2.4;;
70942;SDS011;59154;51.970;5.650;2023-05-10T22:15:02;3.3;;;2.2;;
70942;SDS011;59154;51.970;5.650;2023-05-10T22:20:03;4.3;;;2.3;;
70942;SDS011;59154;51.970;5.650;2023-05-10T22:25:03;2.9;;;2.1;;
70942;SDS011;59154;51.970;5.650;2023-05-10T22:30:02;3.3;;;2.1;;
70942;SDS011;59154;51.970;5.650;2023-05-10T22:35:03;3.6;;;2.4;;
70942;SDS011;59154;51.970;5.650;2023-05-10T22:40:03;3.6;;;2.3;;
70942;SDS011;59154;51.970;5.650;2023-05-10T22:45:02;3.4;;;2.2;;
70942;SDS011;59154;51.970;5.650;2023-05-10T22:50:02;3.2;;;2.0;;
70942;SDS011;59154;51.970;5.650;2023-05-10T22:55:02;4.3;;;2.3;;
70942;SDS011;59154;51.970;5.650;2023-05-10T23:00:02;3.6;;;2.0;;
70942;SDS011;59154;51.970;5.650;2023-05-10T23:05:02;4.0;;;1.9;;
70942;SDS011;59154;51.970;5.650;2023-05-10T23:10:03;3.0;;;2.0;;
70942;SDS011;59154;51.970;5.650;2023-05-10T23:15:02;3.3;;;2.3;;
70942;SDS011;59154;51.970;5.650;2023-05-10T23:20:03;3.0;;;1.8;;
70942;SDS011;59154;51.970;5.650;2023-05-10T23:25:02;3.0;;;2.2;;
70942;SDS011;59154;51.970;5.650;2023-05-10T23:30:03;3.0;;;1.9;;
70942;SDS011;59154;51.970;5.650;2023-05-10T23:35:02;3.8;;;2.0;;
70942;SDS011;59154;51.970;5.650;2023-05-10T23:40:03;3.3;;;2.2;;
70942;SDS011;59154;51.970;5.650;2023-05-10T23:45:02;2.9;;;2.2;;
70942;SDS011;59154;51.970;5.650;2023-05-10T23:50:02;2.9;;;2.0;;
70942;SDS011;59154;51.970;5.650;2023-05-10T23:55:03;2.6;;;2.1;;
